Time;durP1;ratioP1;P1;durP2;ratioP2;P2;SDS_P1;SDS_P2;PMS_P1;PMS_P2;Temp;Humidity;BMP_temperature;BMP_pressure;BME280_temperature;BME280_humidity;BME280_pressure;Samples;Min_cycle;Max_cycle;Signal;HPM_P1;HPM_P2
2022/07/18 00:00:49;;;;;;;7.70;2.77;;;;;;;19.59;100.00;62895.09;5080209;28;20645;-77
2022/07/18 00:03:16;;;;;;;3.80;2.27;;;;;;;19.47;100.00;62887.31;5093622;28;20206;-76
2022/07/18 00:05:43;;;;;;;5.47;2.80;;;;;;;19.54;100.00;62889.72;5067575;28;20604;-77
2022/07/18 00:08:12;;;;;;;6.73;2.77;;;;;;;19.54;100.00;62894.88;5093550;28;20238;-76
2022/07/18 00:10:39;;;;;;;4.47;2.63;;;;;;;18.82;100.00;62810.41;5080810;28;20208;-76
2022/07/18 00:13:09;;;;;;;9.43;2.70;;;;;;;19.38;100.00;62877.59;5091301;28;20290;-76
2022/07/18 00:15:37;;;;;;;4.13;2.20;;;;;;;19.34;100.00;62869.16;5068281;28;20198;-77
2022/07/18 00:18:05;;;;;;;3.13;2.63;;;;;;;19.32;100.00;62869.56;5079674;28;20315;-75
2022/07/18 00:20:34;;;;;;;5.60;2.60;;;;;;;19.22;100.00;62855.63;5093365;28;20231;-75
2022/07/18 00:23:03;;;;;;;4.60;2.43;;;;;;;18.83;100.00;62819.25;5092996;27;20206;-76
2022/07/18 00:25:33;;;;;;;3.20;2.40;;;;;;;18.16;100.00;62741.72;5093053;28;20203;-75
2022/07/18 00:28:01;;;;;;;3.40;2.40;;;;;;;19.28;100.00;62864.69;5091786;28;20783;-76
2022/07/18 00:30:31;;;;;;;3.90;2.70;;;;;;;19.00;100.00;62835.00;5093478;28;20187;-77
2022/07/18 00:32:58;;;;;;;2.30;2.10;;;;;;;19.03;100.00;62835.13;5092535;28;20269;-76
2022/07/18 00:35:26;;;;;;;3.63;2.37;;;;;;;19.32;100.00;62872.16;5083746;28;20589;-75
2022/07/18 00:37:54;;;;;;;4.40;2.13;;;;;;;18.62;100.00;62796.00;5073210;28;20555;-76
2022/07/18 00:40:22;;;;;;;3.27;2.00;;;;;;;19.20;100.00;62856.06;5073011;28;20283;-77
2022/07/18 00:42:51;;;;;;;3.23;2.30;;;;;;;19.10;100.00;62843.22;5091801;28;20195;-75
2022/07/18 00:45:18;;;;;;;4.23;2.30;;;;;;;19.02;100.00;62834.59;5092174;28;20203;-76
2022/07/18 00:47:50;;;;;;;5.43;2.23;;;;;;;18.83;100.00;62816.66;5086384;28;20224;-75
2022/07/18 00:50:17;;;;;;;2.63;2.20;;;;;;;17.96;100.00;62730.44;5076857;28;20194;-75
2022/07/18 00:52:46;;;;;;;5.00;2.23;;;;;;;18.98;100.00;62835.44;5092520;28;20203;-76
2022/07/18 00:55:14;;;;;;;5.67;2.10;;;;;;;18.91;100.00;62827.88;5083881;28;20270;-77
2022/07/18 00:57:43;;;;;;;2.97;2.10;;;;;;;18.75;100.00;62810.59;5072364;28;20204;-76
2022/07/18 01:03:00;;;;;;;2.37;1.90;;;;;;;18.56;100.00;62790.06;5071164;28;20573;-76
2022/07/18 01:05:28;;;;;;;2.53;2.00;;;;;;;18.77;100.00;62812.75;5072499;28;20200;-75
2022/07/18 01:07:55;;;;;;;5.97;2.30;;;;;;;17.91;100.00;62719.91;5072289;28;20606;-75
2022/07/18 01:10:26;;;;;;;2.90;2.17;;;;;;;17.83;100.00;62719.00;5072439;28;20196;-75
2022/07/18 01:13:00;;;;;;;2.90;1.90;;;;;;;18.68;100.00;62802.47;5072310;28;20206;-76
2022/07/18 01:15:29;;;;;;;2.10;1.90;;;;;;;18.73;100.00;62808.44;5072613;28;20204;-74
2022/07/18 01:17:56;;;;;;;4.00;2.20;;;;;;;18.63;100.00;62795.06;5060455;28;20216;-76
2022/07/18 01:20:40;;;;;;;3.67;1.97;;;;;;;18.72;100.00;62802.19;5072331;28;20232;-75
2022/07/18 01:23:07;;;;;;;3.00;2.07;;;;;;;18.64;100.00;62793.53;5090881;28;20199;-75
2022/07/18 01:25:35;;;;;;;1.70;1.57;;;;;;;18.70;100.00;62802.06;5092315;28;20196;-75
2022/07/18 01:28:02;;;;;;;3.47;1.90;;;;;;;17.80;100.00;62702.88;5091264;28;20726;-76
2022/07/18 01:30:30;;;;;;;3.13;2.13;;;;;;;18.58;100.00;62792.22;5091965;28;20200;-76
2022/07/18 01:33:00;;;;;;;2.20;2.00;;;;;;;18.54;100.00;62787.91;5078692;28;20191;-76
2022/07/18 01:35:31;;;;;;;2.13;1.80;;;;;;;18.38;100.00;62768.03;5091335;28;20195;-75
2022/07/18 01:38:02;;;;;;;1.90;1.70;;;;;;;18.49;100.00;62782.53;5077454;28;20192;-76
2022/07/18 01:40:31;;;;;;;3.77;2.10;;;;;;;18.34;100.00;62761.69;5071768;28;20203;-75
2022/07/18 01:42:59;;;;;;;3.43;2.10;;;;;;;18.52;100.00;62786.31;5072231;28;20212;-73
2022/07/18 01:45:30;;;;;;;2.87;1.70;;;;;;;18.52;100.00;62780.59;5072231;28;20341;-76
2022/07/18 01:47:57;;;;;;;3.00;1.80;;;;;;;17.52;100.00;62678.91;5075802;28;20281;-75
2022/07/18 01:50:26;;;;;;;3.13;1.90;;;;;;;17.95;100.00;62724.22;5071891;28;20196;-76
2022/07/18 01:52:53;;;;;;;4.33;1.90;;;;;;;18.44;100.00;62777.13;5072146;28;20261;-76
2022/07/18 01:55:23;;;;;;;6.60;2.00;;;;;;;18.41;100.00;62773.88;5072245;28;20203;-76
2022/07/18 01:57:52;;;;;;;5.03;1.83;;;;;;;17.62;100.00;62684.53;5072441;28;20203;-76
2022/07/18 02:00:21;;;;;;;3.20;2.00;;;;;;;18.37;100.00;62764.38;5072393;28;20222;-76
2022/07/18 02:02:51;;;;;;;1.93;1.70;;;;;;;18.48;100.00;62781.44;5071128;28;20227;-75
2022/07/18 02:05:19;;;;;;;1.80;1.60;;;;;;;18.51;100.00;62785.22;5071813;28;20669;-77
2022/07/18 02:07:46;;;;;;;4.17;1.83;;;;;;;18.43;100.00;62776.03;5071255;28;20224;-74
2022/07/18 02:10:17;;;;;;;5.47;1.87;;;;;;;17.72;100.00;62699.94;5071387;28;20204;-74
2022/07/18 02:12:50;;;;;;;2.33;1.63;;;;;;;18.26;100.00;62755.63;5077715;28;20199;-77
2022/07/18 02:15:18;;;;;;;5.07;1.80;;;;;;;18.30;100.00;62759.41;5075713;28;20554;-76
2022/07/18 02:17:46;;;;;;;2.10;1.90;;;;;;;18.19;100.00;62747.53;5079061;28;20220;-75
2022/07/18 02:20:15;;;;;;;6.27;1.90;;;;;;;18.19;100.00;62750.13;5090751;28;20239;-77
2022/07/18 02:22:50;;;;;;;5.53;1.90;;;;;;;18.02;100.00;62731.75;5091070;28;20200;-76
2022/07/18 02:25:20;;;;;;;1.97;1.60;;;;;;;18.04;100.00;62728.75;5090433;28;20207;-76
2022/07/18 02:27:54;;;;;;;2.33;1.70;;;;;;;17.84;100.00;62712.34;5090494;28;20223;-76
2022/07/18 02:30:22;;;;;;;4.37;1.87;;;;;;;17.53;100.00;62679.97;5089332;28;20195;-76
2022/07/18 02:32:51;;;;;;;3.33;2.20;;;;;;;17.77;100.00;62702.22;5090358;28;20569;-75
2022/07/18 02:35:24;;;;;;;2.40;1.60;;;;;;;17.43;100.00;62664.03;5089735;28;20199;-76
2022/07/18 02:37:52;;;;;;;3.00;1.90;;;;;;;16.44;100.00;62565.00;5090683;28;20195;-77
2022/07/18 02:40:20;;;;;;;3.30;2.50;;;;;;;17.18;100.00;62641.69;5090167;28;20195;-75
2022/07/18 02:42:50;;;;;;;4.93;2.20;;;;;;;17.04;100.00;62624.56;5089679;28;20199;-75
2022/07/18 02:45:19;;;;;;;4.17;2.10;;;;;;;17.00;100.00;62622.81;5065564;28;20649;-76
2022/07/18 02:47:46;;;;;;;8.33;2.50;;;;;;;16.04;100.00;62522.97;5089173;28;20219;-76
2022/07/18 02:50:15;;;;;;;4.87;2.70;;;;;;;15.59;100.00;62471.41;5090340;28;20269;-75
2022/07/18 02:52:45;;;;;;;7.03;2.70;;;;;;;16.33;100.00;62545.44;5089170;28;20195;-75
2022/07/18 02:55:14;;;;;;;7.27;2.87;;;;;;;16.13;100.00;62523.88;5090228;28;20554;-77
2022/07/18 02:57:42;;;;;;;6.03;3.10;;;;;;;14.87;100.00;62389.31;5089314;28;20249;-76
2022/07/18 03:00:14;;;;;;;6.10;3.17;;;;;;;15.66;100.00;62476.38;5090392;28;20202;-75
2022/07/18 03:02:43;;;;;;;9.83;3.50;;;;;;;15.60;100.00;62472.50;5089641;28;20207;-76
2022/07/18 03:05:17;;;;;;;6.47;3.70;;;;;;;15.79;100.00;62490.94;5090314;28;20211;-76
2022/07/18 03:07:44;;;;;;;5.03;3.27;;;;;;;15.66;100.00;62479.50;5089128;28;20218;-77
2022/07/18 03:10:13;;;;;;;8.07;3.50;;;;;;;15.18;100.00;62427.78;5093435;28;20210;-76
2022/07/18 03:12:42;;;;;;;8.50;3.70;;;;;;;15.02;100.00;62410.56;5074418;28;20196;-76
2022/07/18 03:15:11;;;;;;;6.80;3.63;;;;;;;15.36;100.00;62444.59;5088017;28;20250;-76
2022/07/18 03:17:39;;;;;;;8.20;3.67;;;;;;;15.15;100.00;62424.59;5080892;28;20226;-75
2022/07/18 03:20:10;;;;;;;10.13;4.20;;;;;;;15.13;100.00;62417.28;5093827;28;20211;-75
2022/07/18 03:22:42;;;;;;;10.40;3.73;;;;;;;14.00;100.00;62301.94;5069922;28;20191;-77
2022/07/18 03:25:11;;;;;;;12.00;5.77;;;;;;;14.94;100.00;62397.38;5092734;28;20235;-75
2022/07/18 03:27:39;;;;;;;12.83;6.63;;;;;;;15.18;100.00;62427.78;5074921;28;20599;-77
2022/07/18 03:30:08;;;;;;;13.97;6.57;;;;;;;15.29;100.00;62439.66;5060906;28;20201;-76
2022/07/18 03:32:40;;;;;;;8.07;5.90;;;;;;;15.27;100.00;62440.06;5073132;28;20200;-76
2022/07/18 03:35:09;;;;;;;14.43;5.50;;;;;;;15.23;100.00;62431.16;5074263;28;20204;-75
2022/07/18 03:37:37;;;;;;;11.17;5.33;;;;;;;15.23;100.00;62433.19;5073212;28;20287;-75
2022/07/18 03:40:11;;;;;;;9.50;5.00;;;;;;;14.97;100.00;62405.22;5074368;28;20236;-75
2022/07/18 03:42:42;;;;;;;7.37;4.10;;;;;;;14.74;100.00;62380.44;5074169;28;20208;-75
2022/07/18 03:45:10;;;;;;;6.20;4.20;;;;;;;15.29;100.00;62439.66;5073749;28;20196;-77
2022/07/18 03:47:42;;;;;;;7.70;4.27;;;;;;;15.05;100.00;62413.81;5073743;28;20609;-76
2022/07/18 03:50:12;;;;;;;7.27;4.43;;;;;;;15.20;100.00;62429.94;5070272;28;20662;-75
2022/07/18 03:52:40;;;;;;;7.47;4.77;;;;;;;14.02;100.00;62304.09;5093343;28;20191;-76
2022/07/18 03:55:14;;;;;;;7.63;4.70;;;;;;;15.25;100.00;62435.34;5093006;28;20210;-76
2022/07/18 03:57:42;;;;;;;11.63;5.00;;;;;;;15.25;100.00;62430.22;5080131;28;20199;-76
2022/07/18 04:00:10;;;;;;;9.23;4.40;;;;;;;15.49;100.00;62456.06;5092372;28;20196;-77
2022/07/18 04:02:50;;;;;;;13.33;5.20;;;;;;;15.42;100.00;62453.66;5093190;28;20188;-75
2022/07/18 04:05:18;;;;;;;13.60;5.57;;;;;;;15.57;100.00;62469.81;5082209;28;20315;-75
2022/07/18 04:07:49;;;;;;;8.27;5.10;;;;;;;15.77;100.00;62493.91;5073466;28;20307;-75
2022/07/18 04:10:17;;;;;;;16.50;5.67;;;;;;;15.75;100.00;62489.19;5087725;28;20244;-76
2022/07/18 04:12:48;;;;;;;13.47;5.80;;;;;;;14.62;100.00;62367.53;5074106;28;20207;-75
2022/07/18 04:15:16;;;;;;;10.17;4.50;;;;;;;15.01;100.00;62406.94;5082430;28;20209;-76
2022/07/18 04:17:44;;;;;;;11.03;4.83;;;;;;;16.18;100.00;62534.44;5077198;28;20224;-76
2022/07/18 04:20:13;;;;;;;11.10;5.10;;;;;;;16.12;100.00;62528.47;5072393;28;20258;-76
2022/07/18 04:22:56;;;;;;;6.73;4.20;;;;;;;16.34;100.00;62551.66;5073660;28;20205;-76
2022/07/18 04:25:26;;;;;;;12.43;4.70;;;;;;;16.34;100.00;62549.63;5083634;28;20206;-75
2022/07/18 04:27:54;;;;;;;22.63;6.20;;;;;;;16.54;100.00;62568.09;5076931;28;20231;-75
2022/07/18 04:30:26;;;;;;;21.00;6.87;;;;;;;16.60;100.00;62579.69;5073492;28;20207;-77
2022/07/18 04:32:55;;;;;;;9.73;5.03;;;;;;;16.62;100.00;62579.81;5073386;28;20204;-76
2022/07/18 04:35:24;;;;;;;8.70;4.77;;;;;;;16.67;100.00;62584.66;5073213;28;20196;-77
2022/07/18 04:37:53;;;;;;;11.87;4.73;;;;;;;16.60;100.00;62577.13;5072728;28;20651;-75
2022/07/18 04:40:20;;;;;;;17.70;5.77;;;;;;;16.70;100.00;62585.84;5085436;28;20206;-75
2022/07/18 04:42:50;;;;;;;17.57;6.90;;;;;;;16.79;100.00;62600.16;5093492;28;20200;-76
2022/07/18 04:45:21;;;;;;;22.97;11.37;;;;;;;16.76;100.00;62596.94;5079832;28;20192;-74
2022/07/18 04:47:50;;;;;;;21.97;12.83;;;;;;;16.96;100.00;62618.50;5092646;28;20227;-75
2022/07/18 04:50:20;;;;;;;30.40;17.23;;;;;;;17.08;100.00;62631.44;5093040;28;20256;-75
2022/07/18 04:52:49;;;;;;;31.97;16.47;;;;;;;16.95;100.00;62612.25;5092735;28;20199;-75
2022/07/18 04:55:21;;;;;;;41.37;22.73;;;;;;;17.15;100.00;62638.44;5092420;28;20253;-75
2022/07/18 04:57:52;;;;;;;51.17;26.23;;;;;;;17.29;100.00;62654.06;5075636;28;20199;-76
2022/07/18 05:00:25;;;;;;;39.00;15.90;;;;;;;17.55;100.00;62682.13;5072763;28;20211;-76
2022/07/18 05:02:54;;;;;;;23.17;12.93;;;;;;;17.89;100.00;62715.16;5072648;28;20215;-75
2022/07/18 05:05:27;;;;;;;20.50;11.93;;;;;;;17.87;100.00;62710.44;5072789;28;20196;-76
2022/07/18 05:07:55;;;;;;;24.50;13.60;;;;;;;18.03;100.00;62728.22;5072386;28;20230;-75
2022/07/18 05:10:24;;;;;;;17.80;10.67;;;;;;;17.75;100.00;62700.06;5071372;28;20306;-75
2022/07/18 05:12:54;;;;;;;27.40;11.33;;;;;;;17.90;100.00;62723.97;5077318;28;20283;-76
2022/07/18 05:15:23;;;;;;;23.57;12.13;;;;;;;18.57;100.00;62788.03;5088458;28;20206;-75
2022/07/18 05:17:51;;;;;;;18.37;10.80;;;;;;;18.61;100.00;62795.47;5072420;28;20220;-76
2022/07/18 05:20:20;;;;;;;26.30;11.10;;;;;;;18.63;100.00;62797.63;5072130;28;20192;-75
2022/07/18 05:22:54;;;;;;;23.20;11.50;;;;;;;18.88;100.00;62819.47;5071859;28;20306;-76
2022/07/18 05:25:24;;;;;;;25.33;12.27;;;;;;;18.64;100.00;62793.53;5090786;28;20206;-75
2022/07/18 05:27:53;;;;;;;18.47;11.47;;;;;;;18.77;100.00;62807.59;5091409;28;20227;-75
2022/07/18 05:30:22;;;;;;;23.23;11.30;;;;;;;19.47;100.00;62882.13;5069252;28;20200;-75
2022/07/18 05:32:53;;;;;;;19.73;9.40;;;;;;;18.34;100.00;62766.31;5071179;28;20200;-75
2022/07/18 05:35:25;;;;;;;19.93;9.03;;;;;;;19.94;100.00;62933.47;5090673;28;20288;-76
2022/07/18 05:37:54;;;;;;;27.70;8.73;;;;;;;20.34;100.00;62976.22;5075930;28;20227;-76
2022/07/18 05:40:21;;;;;;;19.93;8.63;;;;;;;20.70;100.00;63015.13;5073171;28;20578;-76
2022/07/18 05:42:51;;;;;;;25.10;7.47;;;;;;;20.92;100.00;63041.53;5076087;28;20203;-75
2022/07/18 05:45:18;;;;;;;18.83;6.90;;;;;;;21.07;100.00;63059.28;5092606;28;20235;-74
2022/07/18 05:47:45;;;;;;;18.20;6.17;;;;;;;20.82;100.00;63033.31;5091813;28;20350;-77
2022/07/18 05:50:16;;;;;;;19.93;5.77;;;;;;;21.21;100.00;63069.25;5089543;28;20210;-75
2022/07/18 05:52:45;;;;;;;11.83;5.90;;;;;;;20.80;100.00;63028.53;5072372;28;20200;-75
2022/07/18 05:55:15;;;;;;;15.50;5.27;;;;;;;21.27;100.00;63076.28;5084884;28;20203;-77
2022/07/18 05:57:42;;;;;;;14.27;5.00;;;;;;;20.31;100.00;62972.94;5077577;28;20214;-76
2022/07/18 06:00:13;;;;;;;16.50;5.27;;;;;;;20.76;100.00;63021.63;5071793;28;20196;-76
2022/07/18 06:02:43;;;;;;;8.87;4.20;;;;;;;20.83;100.00;63029.19;5072008;28;20214;-76
2022/07/18 06:05:12;;;;;;;13.67;4.77;;;;;;;21.83;100.00;63136.41;5073850;28;20193;-76
2022/07/18 06:07:40;;;;;;;8.83;4.10;;;;;;;22.04;100.00;63158.56;5059493;28;20226;-77
2022/07/18 06:10:10;;;;;;;11.70;3.67;;;;;;;22.40;100.00;63203.31;5085915;28;20211;-76
2022/07/18 06:12:44;;;;;;;15.57;3.53;;;;;;;22.25;100.00;63181.88;5077001;28;20385;-76
2022/07/18 06:15:15;;;;;;;10.30;3.80;;;;;;;22.84;100.00;63247.34;5091622;28;20250;-76
2022/07/18 06:17:43;;;;;;;10.03;3.97;;;;;;;22.86;100.00;63246.91;5065724;28;20789;-76
2022/07/18 06:20:11;;;;;;;8.30;3.57;;;;;;;22.38;100.00;63195.94;5090523;28;20202;-76
2022/07/18 06:22:39;;;;;;;5.60;3.17;;;;;;;23.00;100.00;63267.28;5072087;28;20285;-77
2022/07/18 06:25:09;;;;;;;10.73;2.93;;;;;;;23.47;100.00;63316.19;5071648;28;20258;-77
2022/07/18 06:27:46;;;;;;;6.40;2.30;;;;;;;23.39;100.00;63301.78;5071334;28;20198;-77
2022/07/18 06:30:14;;;;;;;6.23;2.40;;;;;;;23.16;100.00;63282.03;5075117;28;20241;-77
2022/07/18 06:32:44;;;;;;;6.33;2.60;;;;;;;23.46;100.00;63319.78;5091411;28;20200;-77
2022/07/18 06:35:13;;;;;;;11.57;2.60;;;;;;;23.54;100.00;63325.31;5091182;28;20718;-76
2022/07/18 06:37:42;;;;;;;5.60;2.30;;;;;;;23.76;93.20;63344.50;5091197;28;20208;-78
2022/07/18 06:40:10;;;;;;;10.33;2.20;;;;;;;23.61;91.05;63328.22;5091138;28;20197;-74
2022/07/18 06:42:38;;;;;;;4.23;1.93;;;;;;;23.55;90.13;63321.72;5091159;28;20654;-78
2022/07/18 06:45:11;;;;;;;4.93;2.00;;;;;;;22.92;86.68;63253.94;5090573;28;20632;-78
2022/07/18 06:47:38;;;;;;;5.17;1.93;;;;;;;23.95;85.29;63365.13;5077616;28;20229;-77
2022/07/18 06:50:06;;;;;;;4.23;2.50;;;;;;;24.04;78.07;63380.13;5091836;28;20591;-77
2022/07/18 06:52:34;;;;;;;5.60;1.80;;;;;;;24.37;75.12;63409.63;5089690;28;20239;-77
2022/07/18 06:55:03;;;;;;;7.87;2.30;;;;;;;24.19;74.08;63391.19;5090708;28;20203;-76
2022/07/18 06:57:31;;;;;;;6.27;1.80;;;;;;;24.48;73.16;63421.56;5089815;28;20637;-76
2022/07/18 06:59:59;;;;;;;6.43;1.83;;;;;;;23.80;68.36;63354.06;5079059;28;20236;-77
2022/07/18 07:02:47;;;;;;;5.13;1.83;;;;;;;24.22;67.92;63394.44;5089763;28;20212;-75
2022/07/18 07:05:17;;;;;;;4.13;1.60;;;;;;;23.85;68.14;63349.06;5079819;28;20244;-77
2022/07/18 07:07:46;;;;;;;8.50;2.23;;;;;;;23.47;66.53;63315.66;5088966;28;20273;-75
2022/07/18 07:10:14;;;;;;;7.10;1.80;;;;;;;23.75;70.86;63343.41;5091388;28;20283;-76
2022/07/18 07:12:47;;;;;;;4.20;1.90;;;;;;;24.16;72.54;63389.97;5076474;28;20196;-75
2022/07/18 07:15:15;;;;;;;7.50;2.00;;;;;;;24.40;69.81;63413.44;5089020;28;20209;-78
2022/07/18 07:17:46;;;;;;;3.33;1.70;;;;;;;24.70;66.18;63445.44;5085111;28;20228;-77
2022/07/18 07:20:13;;;;;;;3.10;1.60;;;;;;;24.27;70.08;63396.69;5083425;28;20252;-76
2022/07/18 07:22:45;;;;;;;6.13;2.23;;;;;;;24.48;64.70;63424.16;5076751;28;20227;-77
2022/07/18 07:25:15;;;;;;;4.03;1.60;;;;;;;25.27;67.77;63507.38;5090702;28;20213;-75
2022/07/18 07:27:42;;;;;;;5.47;1.80;;;;;;;24.80;64.01;63456.31;5075593;28;20211;-77
2022/07/18 07:30:14;;;;;;;5.00;2.20;;;;;;;25.20;69.25;63499.19;5070640;28;20223;-76
2022/07/18 07:32:43;;;;;;;6.93;1.97;;;;;;;24.50;69.21;63423.72;5070366;28;20239;-76
2022/07/18 07:35:14;;;;;;;4.50;1.63;;;;;;;25.44;67.96;63525.84;5071074;28;20247;-77
2022/07/18 07:37:42;;;;;;;6.37;2.10;;;;;;;25.55;69.01;63540.41;5070644;28;20196;-76
2022/07/18 07:40:10;;;;;;;4.87;1.83;;;;;;;24.96;67.51;63473.69;5070516;28;20635;-76
2022/07/18 07:42:37;;;;;;;2.70;1.70;;;;;;;25.85;64.42;63569.84;5070860;28;20204;-75
2022/07/18 07:45:06;;;;;;;3.73;1.80;;;;;;;25.56;66.38;63541.47;5070655;28;20196;-76
2022/07/18 07:47:34;;;;;;;4.20;1.60;;;;;;;25.78;63.45;63562.22;5072086;28;20192;-76
2022/07/18 07:50:04;;;;;;;6.40;1.77;;;;;;;25.98;58.76;63580.81;5083497;28;20276;-77
2022/07/18 07:52:36;;;;;;;2.33;1.57;;;;;;;26.10;58.52;63596.50;5064199;28;20201;-78
2022/07/18 07:55:05;;;;;;;4.17;1.60;;;;;;;26.10;57.84;63602.25;5083913;28;20571;-75
2022/07/18 07:57:32;;;;;;;5.00;1.90;;;;;;;26.15;58.26;63601.91;5091856;28;20206;-75
2022/07/18 07:59:59;;;;;;;3.57;1.60;;;;;;;26.88;55.01;63681.31;5093780;28;20195;-76
2022/07/18 08:02:27;;;;;;;3.17;1.50;;;;;;;26.70;54.09;63667.47;5092558;28;20218;-75
2022/07/18 08:04:55;;;;;;;4.20;1.70;;;;;;;26.50;57.00;63634.75;5093145;28;20200;-78
2022/07/18 08:07:23;;;;;;;2.50;1.40;;;;;;;26.37;53.20;63626.38;5091905;28;20203;-75
2022/07/18 08:09:52;;;;;;;7.93;1.70;;;;;;;26.27;53.82;63617.56;5092798;28;20288;-75
2022/07/18 08:12:19;;;;;;;3.43;1.47;;;;;;;26.39;52.35;63622.78;5079001;28;20206;-74
2022/07/18 08:14:49;;;;;;;3.03;1.47;;;;;;;26.28;52.10;63616.59;5083858;28;20203;-75
2022/07/18 08:17:18;;;;;;;3.47;1.53;;;;;;;25.72;52.81;63555.72;5073236;28;20223;-76
2022/07/18 08:19:45;;;;;;;2.87;1.63;;;;;;;25.95;56.29;63586.47;5073659;28;20224;-75
2022/07/18 08:22:13;;;;;;;4.30;1.80;;;;;;;25.54;53.24;63539.31;5077305;28;20301;-75
2022/07/18 08:24:40;;;;;;;2.33;1.30;;;;;;;25.66;53.23;63549.75;5093144;28;20200;-75
2022/07/18 08:27:11;;;;;;;3.33;1.37;;;;;;;25.13;53.67;63497.38;5075277;28;20291;-75
2022/07/18 08:29:39;;;;;;;3.67;1.50;;;;;;;25.91;52.68;63574.31;5073541;28;20725;-75
2022/07/18 08:32:08;;;;;;;3.43;1.50;;;;;;;25.30;52.99;63510.06;5073298;28;20312;-77
2022/07/18 08:34:37;;;;;;;8.00;1.80;;;;;;;25.84;57.84;63568.75;5073548;28;20199;-76
2022/07/18 08:37:06;;;;;;;5.10;1.97;;;;;;;26.35;56.82;63629.44;5073436;28;20194;-76
2022/07/18 08:39:34;;;;;;;2.07;1.60;;;;;;;26.46;52.05;63640.84;5073687;28;20291;-75
2022/07/18 08:42:03;;;;;;;3.37;2.47;;;;;;;26.73;50.41;63665.00;5060268;28;20196;-76
2022/07/18 08:44:35;;;;;;;3.23;2.33;;;;;;;26.08;50.91;63589.09;5071565;28;20222;-76
2022/07/18 08:47:04;;;;;;;2.73;1.63;;;;;;;25.11;57.03;63495.19;5073122;28;20218;-75
2022/07/18 08:49:31;;;;;;;4.07;1.50;;;;;;;25.93;53.40;63579.09;5072888;28;20224;-76
2022/07/18 08:52:04;;;;;;;3.33;1.60;;;;;;;27.35;54.61;63732.47;5073253;28;20200;-76
2022/07/18 08:54:34;;;;;;;7.67;1.70;;;;;;;27.70;53.18;63769.44;5072724;28;20309;-77
2022/07/18 08:57:06;;;;;;;5.10;1.97;;;;;;;27.62;49.73;63763.38;5073241;28;20659;-75
2022/07/18 08:59:35;;;;;;;2.63;1.60;;;;;;;27.95;49.51;63794.06;5074177;28;20584;-76
2022/07/18 09:02:03;;;;;;;3.53;2.50;;;;;;;28.27;50.59;63832.06;5073184;28;20523;-76
2022/07/18 09:04:33;;;;;;;3.90;2.87;;;;;;;27.67;50.46;63766.72;5073668;28;20646;-76
2022/07/18 09:07:03;;;;;;;1.63;1.53;;;;;;;26.74;52.06;63666.09;5073510;28;20206;-75
2022/07/18 09:09:32;;;;;;;11.53;1.90;;;;;;;27.68;54.65;63767.28;5072449;28;20224;-77
2022/07/18 09:12:02;;;;;;;5.47;1.83;;;;;;;27.08;51.70;63703.06;5072184;28;20757;-74
2022/07/18 09:14:38;;;;;;;6.13;1.80;;;;;;;27.62;53.88;63760.75;5072348;28;20311;-75
2022/07/18 09:17:08;;;;;;;3.80;1.80;;;;;;;27.08;53.45;63703.06;5087289;28;20228;-75
2022/07/18 09:19:37;;;;;;;5.03;1.97;;;;;;;25.88;57.89;63573.63;5092532;28;20198;-75
2022/07/18 09:22:19;;;;;;;7.40;1.63;;;;;;;26.43;57.71;63638.13;5091674;28;20226;-75
2022/07/18 09:25:03;;;;;;;6.50;1.90;;;;;;;27.13;59.92;63707.94;5092175;28;20257;-76
2022/07/18 09:27:34;;;;;;;6.07;2.03;;;;;;;27.18;58.36;63719.19;5091870;28;20195;-76
2022/07/18 09:30:19;;;;;;;2.80;1.90;;;;;;;27.46;54.99;63744.44;5091361;28;20593;-76
2022/07/18 09:32:49;;;;;;;5.00;2.23;;;;;;;26.87;53.89;63684.91;5091562;28;20291;-77
2022/07/18 09:35:19;;;;;;;4.73;1.90;;;;;;;28.25;52.38;63829.88;5091110;27;20585;-75
2022/07/18 09:37:57;;;;;;;3.70;2.03;;;;;;;27.80;55.62;63782.97;5091472;28;20278;-76
2022/07/18 09:40:27;;;;;;;3.50;1.93;;;;;;;28.19;56.17;63820.22;5066573;28;20191;-74
2022/07/18 09:42:56;;;;;;;8.17;2.60;;;;;;;27.92;54.59;63793.41;5092354;28;20195;-74
2022/07/18 09:45:28;;;;;;;5.13;2.00;;;;;;;28.07;53.75;63809.75;5098231;28;20200;-75
2022/07/18 09:47:58;;;;;;;5.07;1.87;;;;;;;28.13;57.32;63816.28;5092670;28;20685;-75
2022/07/18 09:50:34;;;;;;;10.20;2.23;;;;;;;27.86;53.74;63792.09;5091713;28;20231;-76
2022/07/18 09:53:08;;;;;;;4.20;1.90;;;;;;;27.73;55.71;63772.72;5091222;28;20538;-75
2022/07/18 09:55:35;;;;;;;8.80;2.87;;;;;;;28.33;57.92;63838.06;5091830;28;20200;-74
2022/07/18 09:58:06;;;;;;;7.53;2.00;;;;;;;28.15;59.03;63818.47;5095273;28;20278;-76
2022/07/18 10:00:39;;;;;;;6.87;2.83;;;;;;;28.57;59.32;63863.69;5077536;28;20204;-75
2022/07/18 10:03:14;;;;;;;5.80;2.07;;;;;;;28.49;52.29;63855.50;5091840;28;20195;-75
2022/07/18 10:05:42;;;;;;;5.20;2.33;;;;;;;29.14;53.41;63926.34;5090574;28;20199;-76
2022/07/18 10:08:12;;;;;;;4.93;1.93;;;;;;;28.72;52.13;63880.56;5090987;27;20570;-76
2022/07/18 10:10:42;;;;;;;4.47;2.23;;;;;;;28.90;53.42;63902.78;5088227;28;20256;-74
2022/07/18 10:13:18;;;;;;;5.13;1.80;;;;;;;28.18;50.70;63819.66;5081030;28;20231;-76
2022/07/18 10:15:50;;;;;;;6.80;2.20;;;;;;;28.14;52.49;63815.31;5073600;28;20249;-75
2022/07/18 10:18:21;;;;;;;10.63;2.10;;;;;;;26.96;54.16;63692.63;5070741;28;20220;-77
2022/07/18 10:20:54;;;;;;;4.73;1.93;;;;;;;28.16;56.14;63814.84;5071218;28;20228;-75
2022/07/18 10:23:23;;;;;;;7.07;2.07;;;;;;;28.69;54.37;63872.06;5071170;28;20247;-75
2022/07/18 10:26:14;;;;;;;2.33;2.07;;;;;;;28.33;50.59;63838.06;5071198;28;20230;-75
2022/07/18 10:29:16;;;;;;;3.97;2.43;;;;;;;29.14;50.93;63925.78;5084151;28;20215;-76
2022/07/18 10:32:03;;;;;;;4.93;2.47;;;;;;;29.28;50.43;63940.50;5084495;28;20218;-77
2022/07/18 10:34:35;;;;;;;3.37;2.00;;;;;;;28.94;48.63;63901.34;5083159;28;20651;-76
2022/07/18 10:37:11;;;;;;;16.77;2.80;;;;;;;29.04;52.70;63914.88;5090409;28;20220;-76
2022/07/18 10:39:39;;;;;;;2.40;1.90;;;;;;;28.83;50.72;63897.78;5090082;28;20200;-75
2022/07/18 10:42:24;;;;;;;3.93;2.40;;;;;;;28.20;55.54;63829.69;5091080;28;20196;-76
2022/07/18 10:44:56;;;;;;;3.77;1.90;;;;;;;28.76;48.99;63887.53;5089321;28;20228;-77
2022/07/18 10:47:30;;;;;;;1.97;1.70;;;;;;;28.59;48.78;63866.41;5090880;28;20239;-76
2022/07/18 10:50:18;;;;;;;4.53;2.30;;;;;;;29.17;49.98;63929.63;5089744;28;20681;-75
2022/07/18 10:53:00;;;;;;;4.63;2.00;;;;;;;29.56;47.30;63971.56;5087952;28;20650;-76
2022/07/18 10:55:35;;;;;;;5.87;2.00;;;;;;;29.61;47.65;63976.47;5089839;28;20197;-75
2022/07/18 10:58:19;;;;;;;4.20;1.70;;;;;;;29.98;47.00;64016.84;5083600;28;20197;-75
2022/07/18 11:00:50;;;;;;;4.07;2.00;;;;;;;30.34;46.96;64055.56;5084809;28;20209;-77
2022/07/18 11:03:27;;;;;;;6.00;2.20;;;;;;;29.72;48.96;63991.13;5090385;28;20204;-76
2022/07/18 11:05:57;;;;;;;4.13;2.00;;;;;;;30.47;48.06;64069.75;5089694;28;20196;-75
2022/07/18 11:08:25;;;;;;;4.30;2.60;;;;;;;30.30;46.28;64057.00;5090747;28;20247;-76
2022/07/18 11:11:12;;;;;;;4.07;2.00;;;;;;;30.38;47.92;64063.09;5085925;28;20325;-75
2022/07/18 11:13:41;;;;;;;11.03;2.47;;;;;;;29.99;48.67;64017.91;5070967;28;20277;-76
2022/07/18 11:16:14;;;;;;;4.03;2.20;;;;;;;29.96;46.36;64009.41;5070900;28;20214;-76
2022/07/18 11:19:29;;;;;;;4.70;2.10;;;;;;;30.13;48.98;64033.19;5070462;28;20694;-75
2022/07/18 11:22:01;;;;;;;7.40;2.10;;;;;;;30.29;45.31;64050.66;5083911;28;20222;-76
2022/07/18 11:24:28;;;;;;;8.57;2.13;;;;;;;30.36;46.08;64058.31;5070743;28;20202;-75
2022/07/18 11:26:56;;;;;;;6.87;2.30;;;;;;;30.51;44.76;64072.03;5071311;28;20603;-76
2022/07/18 11:29:23;;;;;;;5.50;2.03;;;;;;;30.14;46.89;64034.28;5070922;28;20226;-75
2022/07/18 11:31:52;;;;;;;4.30;2.20;;;;;;;29.94;44.85;64012.47;5075646;28;20203;-76
2022/07/18 11:34:21;;;;;;;7.53;2.30;;;;;;;30.35;44.62;64057.19;5074864;28;20201;-75
2022/07/18 11:36:49;;;;;;;2.53;2.10;;;;;;;30.31;47.10;64052.84;5076011;28;20198;-75
2022/07/18 11:39:31;;;;;;;5.07;2.40;;;;;;;30.62;48.54;64084.03;5075439;28;20278;-77
2022/07/18 11:41:58;;;;;;;7.73;2.20;;;;;;;30.65;46.47;64089.91;5075409;28;20200;-75
2022/07/18 11:44:28;;;;;;;6.50;2.37;;;;;;;30.87;46.13;64112.88;5076824;28;20227;-76